sensor_id;sensor_type;location;lat;lon;timestamp;pressure;altitude;pressure_sealevel;temperature;humidity
78625;BME280;67944;0.000;0.000;2023-07-31T00:01:18;100575.09;;;26.25;44.24
78625;BME280;67944;0.000;0.000;2023-07-31T00:03:45;100578.59;;;26.26;44.56
78625;BME280;67944;0.000;0.000;2023-07-31T00:06:11;100573.47;;;26.24;44.26
78625;BME280;67944;0.000;0.000;2023-07-31T00:08:36;100577.16;;;26.23;44.27
78625;BME280;67944;0.000;0.000;2023-07-31T00:11:02;100579.84;;;26.23;44.32
78625;BME280;67944;0.000;0.000;2023-07-31T00:13:27;100574.72;;;26.22;44.24
78625;BME280;67944;0.000;0.000;2023-07-31T00:15:52;100574.72;;;26.22;44.68
78625;BME280;67944;0.000;0.000;2023-07-31T00:18:18;100576.56;;;26.21;44.77
78625;BME280;67944;0.000;0.000;2023-07-31T00:20:43;100581.06;;;26.21;44.26
78625;BME280;67944;0.000;0.000;2023-07-31T00:23:09;100579.44;;;26.20;43.97
78625;BME280;67944;0.000;0.000;2023-07-31T00:25:34;100581.06;;;26.21;44.79
78625;BME280;67944;0.000;0.000;2023-07-31T00:28:00;100571.44;;;26.20;44.71
78625;BME280;67944;0.000;0.000;2023-07-31T00:30:25;100564.47;;;26.19;44.90
78625;BME280;67944;0.000;0.000;2023-07-31T00:32:52;100567.97;;;26.19;44.04
78625;BME280;67944;0.000;0.000;2023-07-31T00:35:17;100569.00;;;26.18;44.19
78625;BME280;67944;0.000;0.000;2023-07-31T00:37:43;100573.53;;;26.18;44.33
78625;BME280;67944;0.000;0.000;2023-07-31T00:40:08;100568.19;;;26.18;44.43
78625;BME280;67944;0.000;0.000;2023-07-31T00:42:34;100567.59;;;26.16;44.82
78625;BME280;67944;0.000;0.000;2023-07-31T00:44:59;100565.72;;;26.16;44.94
78625;BME280;67944;0.000;0.000;2023-07-31T00:47:25;100563.06;;;26.16;44.59
78625;BME280;67944;0.000;0.000;2023-07-31T00:49:51;100558.75;;;26.15;44.31
78625;BME280;67944;0.000;0.000;2023-07-31T00:52:18;100553.41;;;26.15;44.57
78625;BME280;67944;0.000;0.000;2023-07-31T00:54:44;100560.59;;;26.15;44.81
78625;BME280;67944;0.000;0.000;2023-07-31T00:57:09;100560.81;;;26.13;44.42
78625;BME280;67944;0.000;0.000;2023-07-31T00:59:35;100555.47;;;26.13;44.85
78625;BME280;67944;0.000;0.000;2023-07-31T01:02:01;100552.00;;;26.13;44.74
78625;BME280;67944;0.000;0.000;2023-07-31T01:04:27;100553.84;;;26.12;44.51
78625;BME280;67944;0.000;0.000;2023-07-31T01:07:01;100545.84;;;26.12;44.46
78625;BME280;67944;0.000;0.000;2023-07-31T01:09:52;100556.94;;;26.09;44.80
78625;BME280;67944;0.000;0.000;2023-07-31T01:12:23;100553.66;;;26.07;44.57
78625;BME280;67944;0.000;0.000;2023-07-31T01:15:08;100554.06;;;26.04;43.69
78625;BME280;67944;0.000;0.000;2023-07-31T01:17:37;100550.19;;;26.00;43.85
78625;BME280;67944;0.000;0.000;2023-07-31T01:20:07;100555.75;;;25.99;43.97
78625;BME280;67944;0.000;0.000;2023-07-31T01:25:53;100554.78;;;25.93;43.21
78625;BME280;67944;0.000;0.000;2023-07-31T01:28:26;100548.22;;;25.89;43.73
78625;BME280;67944;0.000;0.000;2023-07-31T01:30:56;100551.09;;;25.87;43.77
78625;BME280;67944;0.000;0.000;2023-07-31T01:33:23;100540.03;;;25.84;42.83
78625;BME280;67944;0.000;0.000;2023-07-31T01:35:48;100549.06;;;25.83;43.55
78625;BME280;67944;0.000;0.000;2023-07-31T01:38:14;100554.59;;;25.81;42.85
78625;BME280;67944;0.000;0.000;2023-07-31T01:40:42;100554.00;;;25.79;43.35
78625;BME280;67944;0.000;0.000;2023-07-31T01:43:08;100549.91;;;25.77;42.55
78625;BME280;67944;0.000;0.000;2023-07-31T01:45:33;100548.28;;;25.76;42.50
78625;BME280;67944;0.000;0.000;2023-07-31T01:47:59;100541.31;;;25.75;42.28
78625;BME280;67944;0.000;0.000;2023-07-31T01:50:24;100537.22;;;25.72;42.44
78625;BME280;67944;0.000;0.000;2023-07-31T01:52:50;100545.44;;;25.71;43.06
78625;BME280;67944;0.000;0.000;2023-07-31T01:55:15;100545.66;;;25.69;42.38
78625;BME280;67944;0.000;0.000;2023-07-31T01:57:41;100540.53;;;25.68;42.27
78625;BME280;67944;0.000;0.000;2023-07-31T02:00:07;100538.88;;;25.67;42.47
78625;BME280;67944;0.000;0.000;2023-07-31T02:02:33;100530.28;;;25.65;42.80
78625;BME280;67944;0.000;0.000;2023-07-31T02:04:58;100527.00;;;25.63;42.02
78625;BME280;67944;0.000;0.000;2023-07-31T02:07:23;100521.00;;;25.60;42.57
78625;BME280;67944;0.000;0.000;2023-07-31T02:09:49;100517.75;;;25.58;42.75
78625;BME280;67944;0.000;0.000;2023-07-31T02:12:14;100518.75;;;25.57;42.47
78625;BME280;67944;0.000;0.000;2023-07-31T02:14:40;100524.91;;;25.58;41.73
78625;BME280;67944;0.000;0.000;2023-07-31T02:17:06;100521.66;;;25.56;42.52
78625;BME280;67944;0.000;0.000;2023-07-31T02:19:31;100508.56;;;25.54;41.78
78625;BME280;67944;0.000;0.000;2023-07-31T02:21:57;100507.94;;;25.52;42.09
78625;BME280;67944;0.000;0.000;2023-07-31T02:24:23;100508.16;;;25.51;41.85
78625;BME280;67944;0.000;0.000;2023-07-31T02:26:49;100511.03;;;25.49;42.66
78625;BME280;67944;0.000;0.000;2023-07-31T02:29:14;100507.75;;;25.47;42.41
78625;BME280;67944;0.000;0.000;2023-07-31T02:31:40;100495.44;;;25.46;42.00
78625;BME280;67944;0.000;0.000;2023-07-31T02:34:05;100492.16;;;25.44;41.71
78625;BME280;67944;0.000;0.000;2023-07-31T02:36:30;100497.50;;;25.44;41.73
78625;BME280;67944;0.000;0.000;2023-07-31T02:38:56;100497.72;;;25.43;42.37
78625;BME280;67944;0.000;0.000;2023-07-31T02:41:21;100494.22;;;25.42;41.52
78625;BME280;67944;0.000;0.000;2023-07-31T02:43:47;100497.09;;;25.41;41.43
78625;BME280;67944;0.000;0.000;2023-07-31T02:46:12;100490.94;;;25.40;41.61
78625;BME280;67944;0.000;0.000;2023-07-31T02:48:38;100490.34;;;25.38;41.44
78625;BME280;67944;0.000;0.000;2023-07-31T02:51:03;100493.22;;;25.37;42.23
78625;BME280;67944;0.000;0.000;2023-07-31T02:53:29;100490.75;;;25.35;41.25
78625;BME280;67944;0.000;0.000;2023-07-31T02:55:54;100494.44;;;25.34;41.70
78625;BME280;67944;0.000;0.000;2023-07-31T02:58:20;100489.34;;;25.33;42.24
78625;BME280;67944;0.000;0.000;2023-07-31T03:00:45;100493.88;;;25.32;41.50
78625;BME280;67944;0.000;0.000;2023-07-31T03:03:11;100486.06;;;25.31;41.99
78625;BME280;67944;0.000;0.000;2023-07-31T03:05:37;100483.63;;;25.29;41.31
78625;BME280;67944;0.000;0.000;2023-07-31T03:08:02;100485.69;;;25.27;41.80
78625;BME280;67944;0.000;0.000;2023-07-31T03:10:29;100481.38;;;25.26;41.92
78625;BME280;67944;0.000;0.000;2023-07-31T03:12:54;100485.88;;;25.25;41.27
78625;BME280;67944;0.000;0.000;2023-07-31T03:15:19;100486.31;;;25.22;41.34
78625;BME280;67944;0.000;0.000;2023-07-31T03:17:45;100481.59;;;25.18;41.94
78625;BME280;67944;0.000;0.000;2023-07-31T03:20:11;100488.16;;;25.15;41.41
78625;BME280;67944;0.000;0.000;2023-07-31T03:22:36;100496.56;;;25.12;41.42
78625;BME280;67944;0.000;0.000;2023-07-31T03:25:02;100499.69;;;25.09;41.12
78625;BME280;67944;0.000;0.000;2023-07-31T03:27:28;100496.59;;;25.06;41.00
78625;BME280;67944;0.000;0.000;2023-07-31T03:29:53;100490.06;;;25.02;41.52
78625;BME280;67944;0.000;0.000;2023-07-31T03:32:19;100487.19;;;24.97;41.35
78625;BME280;67944;0.000;0.000;2023-07-31T03:34:44;100485.09;;;24.92;40.44
78625;BME280;67944;0.000;0.000;2023-07-31T03:37:10;100487.16;;;24.90;40.53
78625;BME280;67944;0.000;0.000;2023-07-31T03:39:35;100479.59;;;24.87;40.82
78625;BME280;67944;0.000;0.000;2023-07-31T03:42:01;100482.69;;;24.84;41.43
78625;BME280;67944;0.000;0.000;2023-07-31T03:44:26;100486.56;;;24.81;40.67
78625;BME280;67944;0.000;0.000;2023-07-31T03:46:52;100485.97;;;24.79;40.54
78625;BME280;67944;0.000;0.000;2023-07-31T03:49:17;100476.53;;;24.77;41.24
78625;BME280;67944;0.000;0.000;2023-07-31T03:51:43;100471.63;;;24.74;40.71
78625;BME280;67944;0.000;0.000;2023-07-31T03:54:08;100476.34;;;24.72;41.14
78625;BME280;67944;0.000;0.000;2023-07-31T03:56:34;100479.19;;;24.70;41.00
78625;BME280;67944;0.000;0.000;2023-07-31T03:58:59;100473.28;;;24.68;40.41
78625;BME280;67944;0.000;0.000;2023-07-31T04:01:26;100484.97;;;24.67;41.01
78625;BME280;67944;0.000;0.000;2023-07-31T04:03:51;100484.97;;;24.67;40.63
78625;BME280;67944;0.000;0.000;2023-07-31T04:06:17;100479.03;;;24.65;41.00
78625;BME280;67944;0.000;0.000;2023-07-31T04:08:44;100490.50;;;24.66;40.33
78625;BME280;67944;0.000;0.000;2023-07-31T04:11:10;100484.56;;;24.64;40.84
78625;BME280;67944;0.000;0.000;2023-07-31T04:13:37;100480.47;;;24.61;40.91
78625;BME280;67944;0.000;0.000;2023-07-31T04:16:02;100485.78;;;24.61;40.43
78625;BME280;67944;0.000;0.000;2023-07-31T04:18:28;100478.81;;;24.60;40.94
78625;BME280;67944;0.000;0.000;2023-07-31T04:20:53;100475.34;;;24.59;40.38
78625;BME280;67944;0.000;0.000;2023-07-31T04:23:19;100486.19;;;24.58;40.61
78625;BME280;67944;0.000;0.000;2023-07-31T04:25:45;100480.03;;;24.57;40.15
78625;BME280;67944;0.000;0.000;2023-07-31T04:28:11;100479.22;;;24.57;40.77
78625;BME280;67944;0.000;0.000;2023-07-31T04:30:36;100477.59;;;24.56;40.38
78625;BME280;67944;0.000;0.000;2023-07-31T04:33:01;100473.09;;;24.56;41.12
78625;BME280;67944;0.000;0.000;2023-07-31T04:35:27;100468.78;;;24.55;40.54
78625;BME280;67944;0.000;0.000;2023-07-31T04:37:52;100476.78;;;24.55;40.83
78625;BME280;67944;0.000;0.000;2023-07-31T04:40:18;100475.94;;;24.55;41.21
78625;BME280;67944;0.000;0.000;2023-07-31T04:42:43;100471.66;;;24.54;40.37
78625;BME280;67944;0.000;0.000;2023-07-31T04:45:09;100473.50;;;24.53;41.26
78625;BME280;67944;0.000;0.000;2023-07-31T04:47:35;100475.34;;;24.53;40.89
78625;BME280;67944;0.000;0.000;2023-07-31T04:50:00;100467.34;;;24.53;40.95
78625;BME280;67944;0.000;0.000;2023-07-31T04:52:26;100471.03;;;24.52;40.32
78625;BME280;67944;0.000;0.000;2023-07-31T04:54:51;100471.03;;;24.52;40.89
78625;BME280;67944;0.000;0.000;2023-07-31T04:57:16;100470.22;;;24.51;40.38
78625;BME280;67944;0.000;0.000;2023-07-31T04:59:42;100470.00;;;24.53;41.21
78625;BME280;67944;0.000;0.000;2023-07-31T05:02:08;100464.88;;;24.51;40.45
78625;BME280;67944;0.000;0.000;2023-07-31T05:04:34;100467.56;;;24.51;40.49
78625;BME280;67944;0.000;0.000;2023-07-31T05:06:59;100465.72;;;24.52;40.89
78625;BME280;67944;0.000;0.000;2023-07-31T05:09:25;100470.00;;;24.53;40.60
78625;BME280;67944;0.000;0.000;2023-07-31T05:11:50;100466.53;;;24.52;41.12
78625;BME280;67944;0.000;0.000;2023-07-31T05:14:16;100458.53;;;24.52;40.63
78625;BME280;67944;0.000;0.000;2023-07-31T05:16:41;100453.22;;;24.52;40.22
78625;BME280;67944;0.000;0.000;2023-07-31T05:19:07;100462.03;;;24.53;41.16
78625;BME280;67944;0.000;0.000;2023-07-31T05:21:32;100463.84;;;24.52;41.16
78625;BME280;67944;0.000;0.000;2023-07-31T05:23:58;100466.53;;;24.52;40.26
78625;BME280;67944;0.000;0.000;2023-07-31T05:26:23;100462.03;;;24.53;40.88
78625;BME280;67944;0.000;0.000;2023-07-31T05:28:49;100464.69;;;24.53;40.63
78625;BME280;67944;0.000;0.000;2023-07-31T05:31:14;100459.34;;;24.53;40.57
78625;BME280;67944;0.000;0.000;2023-07-31T05:33:40;100457.72;;;24.52;41.13
78625;BME280;67944;0.000;0.000;2023-07-31T05:36:05;100463.66;;;24.54;41.24
78625;BME280;67944;0.000;0.000;2023-07-31T05:38:31;100462.03;;;24.53;41.33
78625;BME280;67944;0.000;0.000;2023-07-31T05:40:56;100462.03;;;24.53;40.57
78625;BME280;67944;0.000;0.000;2023-07-31T05:43:21;100450.56;;;24.52;40.70
78625;BME280;67944;0.000;0.000;2023-07-31T05:45:47;100447.06;;;24.52;40.42
78625;BME280;67944;0.000;0.000;2023-07-31T05:48:12;100456.69;;;24.53;40.54
78625;BME280;67944;0.000;0.000;2023-07-31T05:50:38;100453.00;;;24.54;41.08
78625;BME280;67944;0.000;0.000;2023-07-31T05:53:05;100450.34;;;24.54;40.97
78625;BME280;67944;0.000;0.000;2023-07-31T05:55:31;100452.81;;;24.55;40.37
78625;BME280;67944;0.000;0.000;2023-07-31T05:57:57;100455.25;;;24.57;40.70
78625;BME280;67944;0.000;0.000;2023-07-31T06:00:22;100445.44;;;24.57;40.47
78625;BME280;67944;0.000;0.000;2023-07-31T06:02:48;100434.56;;;24.59;40.84
78625;BME280;67944;0.000;0.000;2023-07-31T06:05:14;100432.53;;;24.61;41.00
78625;BME280;67944;0.000;0.000;2023-07-31T06:07:39;100436.00;;;24.62;40.35
78625;BME280;67944;0.000;0.000;2023-07-31T06:10:05;100434.97;;;24.63;40.75
78625;BME280;67944;0.000;0.000;2023-07-31T06:12:32;100425.16;;;24.63;40.43
78625;BME280;67944;0.000;0.000;2023-07-31T06:14:57;100427.19;;;24.68;40.90
78625;BME280;67944;0.000;0.000;2023-07-31T06:17:23;100436.59;;;24.70;40.96
78625;BME280;67944;0.000;0.000;2023-07-31T06:19:49;100435.34;;;24.73;40.83
78625;BME280;67944;0.000;0.000;2023-07-31T06:22:14;100435.97;;;24.75;41.29
78625;BME280;67944;0.000;0.000;2023-07-31T06:24:40;100432.28;;;24.76;40.91
78625;BME280;67944;0.000;0.000;2023-07-31T06:27:06;100426.53;;;24.79;41.08
78625;BME280;67944;0.000;0.000;2023-07-31T06:29:31;100435.16;;;24.81;40.35
78625;BME280;67944;0.000;0.000;2023-07-31T06:31:57;100428.59;;;24.83;41.00
78625;BME280;67944;0.000;0.000;2023-07-31T06:34:22;100416.91;;;24.84;40.40
78625;BME280;67944;0.000;0.000;2023-07-31T06:36:48;100423.88;;;24.85;40.84
78625;BME280;67944;0.000;0.000;2023-07-31T06:39:13;100421.81;;;24.87;40.28
78625;BME280;67944;0.000;0.000;2023-07-31T06:41:39;100421.38;;;24.90;40.59
78625;BME280;67944;0.000;0.000;2023-07-31T06:44:04;100431.81;;;24.92;40.41
78625;BME280;67944;0.000;0.000;2023-07-31T06:46:30;100436.94;;;24.93;40.47
78625;BME280;67944;0.000;0.000;2023-07-31T06:48:55;100434.09;;;24.95;40.37
78625;BME280;67944;0.000;0.000;2023-07-31T06:51:21;100439.22;;;24.97;41.31
78625;BME280;67944;0.000;0.000;2023-07-31T06:53:46;100433.69;;;24.98;40.97
78625;BME280;67944;0.000;0.000;2023-07-31T06:56:12;100436.16;;;25.00;40.30
78625;BME280;67944;0.000;0.000;2023-07-31T06:58:38;100436.97;;;25.00;40.28
78625;BME280;67944;0.000;0.000;2023-07-31T07:01:03;100441.06;;;25.03;40.87
78625;BME280;67944;0.000;0.000;2023-07-31T07:03:29;100440.03;;;25.04;41.04
78625;BME280;67944;0.000;0.000;2023-07-31T07:05:54;100432.84;;;25.04;40.92
78625;BME280;67944;0.000;0.000;2023-07-31T07:08:19;100431.84;;;25.05;40.59
78625;BME280;67944;0.000;0.000;2023-07-31T07:10:46;100432.44;;;25.07;40.79
78625;BME280;67944;0.000;0.000;2023-07-31T07:13:11;100427.94;;;25.08;41.27
78625;BME280;67944;0.000;0.000;2023-07-31T07:15:38;100433.06;;;25.09;40.31
78625;BME280;67944;0.000;0.000;2023-07-31T07:18:03;100428.53;;;25.10;40.24
78625;BME280;67944;0.000;0.000;2023-07-31T07:20:29;100423.78;;;25.12;40.31
78625;BME280;67944;0.000;0.000;2023-07-31T07:22:54;100425.22;;;25.14;41.24
78625;BME280;67944;0.000;0.000;2023-07-31T07:25:20;100428.72;;;25.15;40.37
78625;BME280;67944;0.000;0.000;2023-07-31T07:27:45;100426.44;;;25.18;41.20
78625;BME280;67944;0.000;0.000;2023-07-31T07:30:11;100410.25;;;25.20;40.78
78625;BME280;67944;0.000;0.000;2023-07-31T07:32:36;100426.03;;;25.21;41.08
78625;BME280;67944;0.000;0.000;2023-07-31T07:35:02;100415.16;;;25.23;40.61
78625;BME280;67944;0.000;0.000;2023-07-31T07:37:27;100422.13;;;25.24;40.66
78625;BME280;67944;0.000;0.000;2023-07-31T07:39:52;100416.38;;;25.27;40.99
78625;BME280;67944;0.000;0.000;2023-07-31T07:42:18;100419.66;;;25.29;41.26
78625;BME280;67944;0.000;0.000;2023-07-31T07:44:43;100421.88;;;25.32;40.52
78625;BME280;67944;0.000;0.000;2023-07-31T07:47:09;100410.97;;;25.34;41.20
78625;BME280;67944;0.000;0.000;2023-07-31T07:49:34;100406.47;;;25.34;41.22
78625;BME280;67944;0.000;0.000;2023-07-31T07:52:01;100402.34;;;25.38;40.84
78625;BME280;67944;0.000;0.000;2023-07-31T07:54:26;100407.25;;;25.41;40.49
78625;BME280;67944;0.000;0.000;2023-07-31T07:56:52;100398.84;;;25.44;40.96
78625;BME280;67944;0.000;0.000;2023-07-31T07:59:18;100399.44;;;25.46;40.46
78625;BME280;67944;0.000;0.000;2023-07-31T08:01:43;100392.88;;;25.49;40.90
78625;BME280;67944;0.000;0.000;2023-07-31T08:04:09;100387.94;;;25.52;40.54
78625;BME280;67944;0.000;0.000;2023-07-31T08:06:34;100388.28;;;25.56;41.08
78625;BME280;67944;0.000;0.000;2023-07-31T08:08:59;100392.59;;;25.57;40.83
78625;BME280;67944;0.000;0.000;2023-07-31T08:11:30;100401.00;;;25.60;41.16
78625;BME280;67944;0.000;0.000;2023-07-31T08:13:56;100391.97;;;25.61;40.55
78625;BME280;67944;0.000;0.000;2023-07-31T08:16:21;100385.19;;;25.66;40.41
78625;BME280;67944;0.000;0.000;2023-07-31T08:18:47;100383.13;;;25.68;40.75
78625;BME280;67944;0.000;0.000;2023-07-31T08:21:14;100382.09;;;25.69;40.58
78625;BME280;67944;0.000;0.000;2023-07-31T08:23:40;100385.59;;;25.69;40.64
78625;BME280;67944;0.000;0.000;2023-07-31T08:26:05;100373.47;;;25.73;40.94
78625;BME280;67944;0.000;0.000;2023-07-31T08:28:31;100366.88;;;25.76;41.03
78625;BME280;67944;0.000;0.000;2023-07-31T08:30:56;100364.78;;;25.78;40.52
78625;BME280;67944;0.000;0.000;2023-07-31T08:33:22;100368.06;;;25.80;40.36
78625;BME280;67944;0.000;0.000;2023-07-31T08:35:47;100359.63;;;25.83;41.01
78625;BME280;67944;0.000;0.000;2023-07-31T08:38:13;100362.91;;;25.85;41.01
78625;BME280;67944;0.000;0.000;2023-07-31T08:40:39;100357.94;;;25.88;41.00
78625;BME280;67944;0.000;0.000;2023-07-31T08:43:04;100344.38;;;25.90;40.42
78625;BME280;67944;0.000;0.000;2023-07-31T08:45:32;100337.59;;;25.94;40.77
78625;BME280;67944;0.000;0.000;2023-07-31T08:47:58;100343.53;;;25.96;40.66
78625;BME280;67944;0.000;0.000;2023-07-31T08:50:24;100358.03;;;26.00;40.44
78625;BME280;67944;0.000;0.000;2023-07-31T08:52:51;100345.28;;;26.02;40.35
78625;BME280;67944;0.000;0.000;2023-07-31T08:55:18;100344.88;;;26.05;40.91
78625;BME280;67944;0.000;0.000;2023-07-31T08:57:51;100332.94;;;26.08;40.75
78625;BME280;67944;0.000;0.000;2023-07-31T09:00:18;100336.22;;;26.10;40.81
78625;BME280;67944;0.000;0.000;2023-07-31T09:05:14;100337.19;;;26.15;40.15
78625;BME280;67944;0.000;0.000;2023-07-31T09:07:45;100340.25;;;26.19;40.35
78625;BME280;67944;0.000;0.000;2023-07-31T09:10:12;100336.28;;;26.21;40.75
78625;BME280;67944;0.000;0.000;2023-07-31T09:12:39;100338.72;;;26.23;40.19
78625;BME280;67944;0.000;0.000;2023-07-31T09:15:05;100344.66;;;26.25;40.43
78625;BME280;67944;0.000;0.000;2023-07-31T09:17:36;100336.66;;;26.25;40.45
78625;BME280;67944;0.000;0.000;2023-07-31T09:20:13;100329.25;;;26.27;40.26
78625;BME280;67944;0.000;0.000;2023-07-31T09:22:39;100333.38;;;26.29;40.14
78625;BME280;67944;0.000;0.000;2023-07-31T09:25:19;100325.13;;;26.31;40.54
78625;BME280;67944;0.000;0.000;2023-07-31T09:27:56;100329.44;;;26.32;40.40
78625;BME280;67944;0.000;0.000;2023-07-31T09:30:22;100335.38;;;26.34;40.01
78625;BME280;67944;0.000;0.000;2023-07-31T09:32:49;100332.50;;;26.36;40.42
78625;BME280;67944;0.000;0.000;2023-07-31T09:35:20;100329.38;;;26.39;39.64
78625;BME280;67944;0.000;0.000;2023-07-31T09:37:55;100324.03;;;26.39;40.24
78625;BME280;67944;0.000;0.000;2023-07-31T09:40:29;100323.81;;;26.40;39.91
78625;BME280;67944;0.000;0.000;2023-07-31T09:43:03;100323.34;;;26.43;40.32
78625;BME280;67944;0.000;0.000;2023-07-31T09:45:29;100324.16;;;26.44;39.89
78625;BME280;67944;0.000;0.000;2023-07-31T09:47:56;100321.28;;;26.45;39.94
78625;BME280;67944;0.000;0.000;2023-07-31T09:50:24;100311.41;;;26.46;39.94
78625;BME280;67944;0.000;0.000;2023-07-31T09:52:50;100306.88;;;26.46;39.87
78625;BME280;67944;0.000;0.000;2023-07-31T09:55:17;100308.53;;;26.47;39.86
78625;BME280;67944;0.000;0.000;2023-07-31T09:57:48;100308.31;;;26.49;39.42
78625;BME280;67944;0.000;0.000;2023-07-31T10:00:17;100307.47;;;26.48;39.22
78625;BME280;67944;0.000;0.000;2023-07-31T10:02:46;100307.25;;;26.50;39.34
78625;BME280;67944;0.000;0.000;2023-07-31T10:05:14;100314.47;;;26.49;39.25
78625;BME280;67944;0.000;0.000;2023-07-31T10:07:45;100294.94;;;26.49;39.35
78625;BME280;67944;0.000;0.000;2023-07-31T10:10:15;100297.63;;;26.49;39.24
78625;BME280;67944;0.000;0.000;2023-07-31T10:12:40;100291.47;;;26.48;39.92
78625;BME280;67944;0.000;0.000;2023-07-31T10:15:08;100288.56;;;26.50;39.79
78625;BME280;67944;0.000;0.000;2023-07-31T10:17:35;100278.69;;;26.50;39.48
78625;BME280;67944;0.000;0.000;2023-07-31T10:20:02;100274.19;;;26.51;39.42
78625;BME280;67944;0.000;0.000;2023-07-31T10:22:30;100265.13;;;26.52;39.39
78625;BME280;67944;0.000;0.000;2023-07-31T10:24:58;100267.56;;;26.53;39.97
78625;BME280;67944;0.000;0.000;2023-07-31T10:27:24;100257.72;;;26.54;39.44
78625;BME280;67944;0.000;0.000;2023-07-31T10:29:52;100251.31;;;26.55;39.82
78625;BME280;67944;0.000;0.000;2023-07-31T10:32:20;100262.81;;;26.55;39.83
78625;BME280;67944;0.000;0.000;2023-07-31T10:34:47;100264.47;;;26.56;39.52
78625;BME280;67944;0.000;0.000;2023-07-31T10:40:07;100266.47;;;26.61;39.77
78625;BME280;67944;0.000;0.000;2023-07-31T10:45:10;100272.16;;;26.64;39.38
78625;BME280;67944;0.000;0.000;2023-07-31T10:47:37;100267.41;;;26.67;39.34
78625;BME280;67944;0.000;0.000;2023-07-31T10:50:19;100264.28;;;26.70;39.51
78625;BME280;67944;0.000;0.000;2023-07-31T10:52:50;100264.28;;;26.70;39.77
78625;BME280;67944;0.000;0.000;2023-07-31T10:55:42;100268.59;;;26.71;39.40
78625;BME280;67944;0.000;0.000;2023-07-31T10:58:11;100265.47;;;26.74;39.26
78625;BME280;67944;0.000;0.000;2023-07-31T11:00:39;100266.06;;;26.76;39.85
78625;BME280;67944;0.000;0.000;2023-07-31T11:03:10;100250.63;;;26.78;39.46
78625;BME280;67944;0.000;0.000;2023-07-31T11:08:26;100252.63;;;26.82;39.09
78625;BME280;67944;0.000;0.000;2023-07-31T11:11:06;100247.88;;;26.84;39.03
78625;BME280;67944;0.000;0.000;2023-07-31T11:13:40;100248.66;;;26.85;39.46
78625;BME280;67944;0.000;0.000;2023-07-31T11:16:07;100237.75;;;26.86;39.43
78625;BME280;67944;0.000;0.000;2023-07-31T11:18:32;100248.19;;;26.88;39.59
78625;BME280;67944;0.000;0.000;2023-07-31T11:20:58;100253.31;;;26.89;39.07
78625;BME280;67944;0.000;0.000;2023-07-31T11:23:24;100253.31;;;26.89;39.00
78625;BME280;67944;0.000;0.000;2023-07-31T11:25:50;100254.94;;;26.90;39.11
78625;BME280;67944;0.000;0.000;2023-07-31T11:28:17;100248.34;;;26.93;39.56
78625;BME280;67944;0.000;0.000;2023-07-31T11:30:44;100252.66;;;26.94;39.33
78625;BME280;67944;0.000;0.000;2023-07-31T11:33:12;100253.50;;;26.94;39.15
78625;BME280;67944;0.000;0.000;2023-07-31T11:35:44;100258.00;;;26.94;38.88
78625;BME280;67944;0.000;0.000;2023-07-31T11:38:12;100252.66;;;26.94;39.32
78625;BME280;67944;0.000;0.000;2023-07-31T11:40:42;100242.81;;;26.94;39.23
78625;BME280;67944;0.000;0.000;2023-07-31T11:43:07;100230.25;;;26.95;39.65
78625;BME280;67944;0.000;0.000;2023-07-31T11:45:33;100232.94;;;26.95;39.92
78625;BME280;67944;0.000;0.000;2023-07-31T11:48:01;100224.69;;;26.96;39.95
78625;BME280;67944;0.000;0.000;2023-07-31T11:50:27;100208.66;;;26.96;39.77
78625;BME280;67944;0.000;0.000;2023-07-31T11:52:59;100214.00;;;26.96;40.37
78625;BME280;67944;0.000;0.000;2023-07-31T11:55:25;100218.53;;;26.96;40.40
78625;BME280;67944;0.000;0.000;2023-07-31T11:57:52;100210.50;;;26.96;40.63
78625;BME280;67944;0.000;0.000;2023-07-31T12:00:19;100203.31;;;26.96;40.21
78625;BME280;67944;0.000;0.000;2023-07-31T12:02:45;100205.97;;;26.96;40.23
78625;BME280;67944;0.000;0.000;2023-07-31T12:05:14;100201.66;;;26.95;40.47
78625;BME280;67944;0.000;0.000;2023-07-31T12:07:54;100207.03;;;26.95;40.25
78625;BME280;67944;0.000;0.000;2023-07-31T12:13:01;100204.34;;;26.95;40.26
78625;BME280;67944;0.000;0.000;2023-07-31T12:15:33;100197.97;;;26.96;40.39
78625;BME280;67944;0.000;0.000;2023-07-31T12:17:59;100192.63;;;26.96;40.05
78625;BME280;67944;0.000;0.000;2023-07-31T12:20:24;100192.63;;;26.96;39.55
78625;BME280;67944;0.000;0.000;2023-07-31T12:22:50;100191.34;;;26.99;39.62
78625;BME280;67944;0.000;0.000;2023-07-31T12:25:16;100186.00;;;26.99;40.00
78625;BME280;67944;0.000;0.000;2023-07-31T12:27:44;100184.13;;;27.00;39.78
78625;BME280;67944;0.000;0.000;2023-07-31T12:32:54;100178.56;;;27.01;39.30
78625;BME280;67944;0.000;0.000;2023-07-31T12:35:19;100176.72;;;27.02;39.18
78625;BME280;67944;0.000;0.000;2023-07-31T12:37:45;100172.19;;;27.02;39.35
78625;BME280;67944;0.000;0.000;2023-07-31T12:40:10;100172.19;;;27.02;38.82
78625;BME280;67944;0.000;0.000;2023-07-31T12:42:36;100174.03;;;27.02;38.61
78625;BME280;67944;0.000;0.000;2023-07-31T12:45:01;100174.84;;;27.02;38.66
78625;BME280;67944;0.000;0.000;2023-07-31T12:47:27;100164.16;;;27.02;38.87
78625;BME280;67944;0.000;0.000;2023-07-31T12:49:53;100164.97;;;27.03;39.03
78625;BME280;67944;0.000;0.000;2023-07-31T12:52:18;100156.97;;;27.03;38.44
78625;BME280;67944;0.000;0.000;2023-07-31T12:54:43;100160.44;;;27.03;38.10
78625;BME280;67944;0.000;0.000;2023-07-31T12:57:09;100145.22;;;27.04;38.17
78625;BME280;67944;0.000;0.000;2023-07-31T12:59:34;100145.22;;;27.04;38.53
78625;BME280;67944;0.000;0.000;2023-07-31T13:02:00;100141.97;;;27.02;38.67
78625;BME280;67944;0.000;0.000;2023-07-31T13:04:25;100140.34;;;27.01;38.32
78625;BME280;67944;0.000;0.000;2023-07-31T13:06:51;100146.72;;;27.00;38.51
78625;BME280;67944;0.000;0.000;2023-07-31T13:09:17;100144.03;;;27.00;38.11
78625;BME280;67944;0.000;0.000;2023-07-31T13:11:43;100147.31;;;27.02;38.39
78625;BME280;67944;0.000;0.000;2023-07-31T13:14:09;100139.28;;;27.02;38.30
78625;BME280;67944;0.000;0.000;2023-07-31T13:16:34;100134.75;;;27.02;38.26